sensor_id;sensor_type;location;lat;lon;timestamp;pressure;altitude;pressure_sealevel;temperature;humidity
25650;BME280;13505;45.196;5.696;2023-05-20T06:03:55;98941.28;;;14.01;100.00
25650;BME280;13505;45.196;5.696;2023-05-20T06:08:45;98924.94;;;14.07;100.00
25650;BME280;13505;45.196;5.696;2023-05-20T06:13:36;98930.63;;;14.15;100.00
25650;BME280;13505;45.196;5.696;2023-05-20T06:18:27;98932.97;;;14.20;100.00
25650;BME280;13505;45.196;5.696;2023-05-20T06:23:17;98936.19;;;14.25;100.00
25650;BME280;13505;45.196;5.696;2023-05-20T06:28:07;98929.63;;;14.31;100.00
25650;BME280;13505;45.196;5.696;2023-05-20T06:32:58;98918.91;;;14.32;100.00
25650;BME280;13505;45.196;5.696;2023-05-20T06:37:48;98919.16;;;14.42;100.00
25650;BME280;13505;45.196;5.696;2023-05-20T06:42:38;98919.38;;;14.52;100.00
25650;BME280;13505;45.196;5.696;2023-05-20T06:47:29;98921.53;;;14.60;100.00
25650;BME280;13505;45.196;5.696;2023-05-20T06:52:19;98917.00;;;14.62;100.00
25650;BME280;13505;45.196;5.696;2023-05-20T06:57:09;98916.38;;;14.71;100.00
25650;BME280;13505;45.196;5.696;2023-05-20T07:02:00;98918.09;;;14.85;99.38
25650;BME280;13505;45.196;5.696;2023-05-20T07:06:51;98925.44;;;14.82;99.05
25650;BME280;13505;45.196;5.696;2023-05-20T07:11:41;98923.88;;;14.64;99.17
25650;BME280;13505;45.196;5.696;2023-05-20T07:16:31;98909.72;;;14.91;98.55
25650;BME280;13505;45.196;5.696;2023-05-20T07:21:23;98921.19;;;15.05;96.33
25650;BME280;13505;45.196;5.696;2023-05-20T07:26:14;98913.00;;;15.08;94.42
25650;BME280;13505;45.196;5.696;2023-05-20T07:31:04;98918.88;;;15.13;92.21
25650;BME280;13505;45.196;5.696;2023-05-20T07:35:54;98909.22;;;15.12;89.26
25650;BME280;13505;45.196;5.696;2023-05-20T07:40:45;98910.16;;;15.11;89.22
25650;BME280;13505;45.196;5.696;2023-05-20T07:45:35;98905.91;;;15.09;88.92
25650;BME280;13505;45.196;5.696;2023-05-20T07:50:26;98896.88;;;15.11;89.13
25650;BME280;13505;45.196;5.696;2023-05-20T07:55:17;98891.66;;;15.10;88.47
25650;BME280;13505;45.196;5.696;2023-05-20T08:00:08;98892.97;;;15.17;88.57
25650;BME280;13505;45.196;5.696;2023-05-20T08:04:58;98894.78;;;15.03;91.45
25650;BME280;13505;45.196;5.696;2023-05-20T08:09:48;98894.63;;;14.92;89.27
25650;BME280;13505;45.196;5.696;2023-05-20T08:14:39;98894.41;;;15.08;89.06
25650;BME280;13505;45.196;5.696;2023-05-20T08:19:29;98893.50;;;15.09;88.30
25650;BME280;13505;45.196;5.696;2023-05-20T08:24:19;98888.28;;;15.07;88.73
25650;BME280;13505;45.196;5.696;2023-05-20T08:29:10;98884.88;;;15.05;89.07
25650;BME280;13505;45.196;5.696;2023-05-20T08:34:00;98884.47;;;14.99;90.28
25650;BME280;13505;45.196;5.696;2023-05-20T08:38:51;98890.72;;;14.98;90.42
25650;BME280;13505;45.196;5.696;2023-05-20T08:43:41;98886.66;;;14.92;89.54
25650;BME280;13505;45.196;5.696;2023-05-20T08:48:32;98887.84;;;15.01;90.61
25650;BME280;13505;45.196;5.696;2023-05-20T08:53:23;98884.88;;;14.92;91.25
25650;BME280;13505;45.196;5.696;2023-05-20T08:58:14;98888.06;;;15.11;91.09
25650;BME280;13505;45.196;5.696;2023-05-20T09:03:05;98886.59;;;15.19;90.19
25650;BME280;13505;45.196;5.696;2023-05-20T09:08:11;98887.63;;;15.30;90.49
25650;BME280;13505;45.196;5.696;2023-05-20T09:13:02;98890.16;;;15.31;89.49
25650;BME280;13505;45.196;5.696;2023-05-20T09:17:53;98887.75;;;15.28;88.51
25650;BME280;13505;45.196;5.696;2023-05-20T09:22:43;98885.91;;;15.42;88.92
25650;BME280;13505;45.196;5.696;2023-05-20T09:27:33;98892.97;;;15.30;89.48
25650;BME280;13505;45.196;5.696;2023-05-20T09:32:24;98884.53;;;15.36;89.13
25650;BME280;13505;45.196;5.696;2023-05-20T09:37:17;98881.22;;;15.58;89.55
25650;BME280;13505;45.196;5.696;2023-05-20T09:42:25;98880.16;;;15.85;88.74
25650;BME280;13505;45.196;5.696;2023-05-20T09:47:18;98878.00;;;16.03;86.89
25650;BME280;13505;45.196;5.696;2023-05-20T09:52:08;98868.09;;;16.30;86.02
25650;BME280;13505;45.196;5.696;2023-05-20T09:57:00;98874.19;;;16.43;85.49
25650;BME280;13505;45.196;5.696;2023-05-20T10:01:52;98868.72;;;16.33;82.74
25650;BME280;13505;45.196;5.696;2023-05-20T10:07:17;98868.91;;;16.55;81.81
25650;BME280;13505;45.196;5.696;2023-05-20T10:12:28;98862.75;;;16.66;81.87
25650;BME280;13505;45.196;5.696;2023-05-20T10:22:57;98850.44;;;16.76;80.25
25650;BME280;13505;45.196;5.696;2023-05-20T10:27:48;98840.59;;;17.12;79.80
25650;BME280;13505;45.196;5.696;2023-05-20T10:32:51;98841.91;;;17.41;76.33
25650;BME280;13505;45.196;5.696;2023-05-20T10:37:43;98834.00;;;17.51;74.34
25650;BME280;13505;45.196;5.696;2023-05-20T10:42:34;98835.13;;;17.48;74.30
25650;BME280;13505;45.196;5.696;2023-05-20T10:47:25;98831.28;;;17.85;72.87
25650;BME280;13505;45.196;5.696;2023-05-20T10:52:16;98833.19;;;18.06;72.10
25650;BME280;13505;45.196;5.696;2023-05-20T10:57:07;98830.38;;;18.40;70.78
25650;BME280;13505;45.196;5.696;2023-05-20T11:02:01;98829.59;;;18.71;69.19
25650;BME280;13505;45.196;5.696;2023-05-20T11:06:52;98820.59;;;18.72;69.44
25650;BME280;13505;45.196;5.696;2023-05-20T11:11:43;98824.75;;;18.86;68.51
25650;BME280;13505;45.196;5.696;2023-05-20T11:16:33;98820.66;;;19.03;68.83
25650;BME280;13505;45.196;5.696;2023-05-20T11:21:23;98824.44;;;19.00;66.32
25650;BME280;13505;45.196;5.696;2023-05-20T11:26:14;98817.34;;;18.99;66.88
25650;BME280;13505;45.196;5.696;2023-05-20T11:31:04;98812.28;;;19.17;66.18
25650;BME280;13505;45.196;5.696;2023-05-20T11:35:55;98800.34;;;19.21;64.10
25650;BME280;13505;45.196;5.696;2023-05-20T11:40:53;98799.06;;;19.16;63.75
25650;BME280;13505;45.196;5.696;2023-05-20T11:45:45;98796.97;;;19.19;65.09
25650;BME280;13505;45.196;5.696;2023-05-20T11:50:38;98799.88;;;18.64;67.09
25650;BME280;13505;45.196;5.696;2023-05-20T11:55:30;98796.78;;;19.11;66.16
25650;BME280;13505;45.196;5.696;2023-05-20T12:00:22;98789.59;;;19.62;64.26
25650;BME280;13505;45.196;5.696;2023-05-20T12:05:13;98787.78;;;19.63;64.53
25650;BME280;13505;45.196;5.696;2023-05-20T12:10:04;98789.00;;;18.77;66.78
25650;BME280;13505;45.196;5.696;2023-05-20T12:14:54;98778.25;;;19.19;64.64
25650;BME280;13505;45.196;5.696;2023-05-20T12:19:45;98787.72;;;19.43;63.34
25650;BME280;13505;45.196;5.696;2023-05-20T12:24:35;98773.50;;;19.43;62.71
25650;BME280;13505;45.196;5.696;2023-05-20T12:29:25;98785.16;;;19.32;64.48
25650;BME280;13505;45.196;5.696;2023-05-20T12:34:16;98788.66;;;19.32;64.04
25650;BME280;13505;45.196;5.696;2023-05-20T12:39:06;98780.75;;;19.11;64.15
25650;BME280;13505;45.196;5.696;2023-05-20T12:43:57;98781.06;;;19.28;64.31
25650;BME280;13505;45.196;5.696;2023-05-20T12:48:47;98782.56;;;19.10;63.99
25650;BME280;13505;45.196;5.696;2023-05-20T12:53:38;98772.63;;;19.22;64.78
25650;BME280;13505;45.196;5.696;2023-05-20T12:58:28;98768.84;;;19.25;64.98
25650;BME280;13505;45.196;5.696;2023-05-20T13:03:18;98775.59;;;19.29;64.68
25650;BME280;13505;45.196;5.696;2023-05-20T13:08:09;98769.41;;;19.29;65.27
25650;BME280;13505;45.196;5.696;2023-05-20T13:13:01;98768.53;;;19.18;64.64
25650;BME280;13505;45.196;5.696;2023-05-20T13:17:51;98760.41;;;19.30;65.31
25650;BME280;13505;45.196;5.696;2023-05-20T13:22:43;98763.81;;;19.01;66.13
25650;BME280;13505;45.196;5.696;2023-05-20T13:27:33;98763.66;;;19.43;64.26
25650;BME280;13505;45.196;5.696;2023-05-20T13:32:24;98760.53;;;19.38;64.50
25650;BME280;13505;45.196;5.696;2023-05-20T13:37:14;98764.78;;;19.41;64.98
25650;BME280;13505;45.196;5.696;2023-05-20T13:42:05;98767.59;;;19.39;63.66
25650;BME280;13505;45.196;5.696;2023-05-20T13:46:56;98761.38;;;19.29;63.51
25650;BME280;13505;45.196;5.696;2023-05-20T13:51:47;98750.25;;;19.23;64.81
25650;BME280;13505;45.196;5.696;2023-05-20T13:56:37;98744.22;;;19.31;65.58
25650;BME280;13505;45.196;5.696;2023-05-20T14:01:29;98745.91;;;19.32;64.89
25650;BME280;13505;45.196;5.696;2023-05-20T14:06:22;98751.13;;;19.34;64.30
25650;BME280;13505;45.196;5.696;2023-05-20T14:11:12;98734.09;;;19.35;64.21
25650;BME280;13505;45.196;5.696;2023-05-20T14:16:02;98739.88;;;19.40;64.39
25650;BME280;13505;45.196;5.696;2023-05-20T14:20:53;98735.75;;;19.26;64.19
25650;BME280;13505;45.196;5.696;2023-05-20T14:25:43;98730.00;;;19.31;64.31
25650;BME280;13505;45.196;5.696;2023-05-20T14:30:34;98733.44;;;19.02;65.46
25650;BME280;13505;45.196;5.696;2023-05-20T14:35:24;98729.44;;;18.96;66.25
25650;BME280;13505;45.196;5.696;2023-05-20T14:40:15;98714.13;;;18.98;65.81
25650;BME280;13505;45.196;5.696;2023-05-20T14:45:06;98712.41;;;19.18;65.27
25650;BME280;13505;45.196;5.696;2023-05-20T14:49:56;98726.28;;;19.02;67.09
25650;BME280;13505;45.196;5.696;2023-05-20T14:54:47;98722.81;;;18.90;67.11
25650;BME280;13505;45.196;5.696;2023-05-20T14:59:37;98720.56;;;18.86;68.26
25650;BME280;13505;45.196;5.696;2023-05-20T15:04:27;98732.91;;;18.77;68.04
25650;BME280;13505;45.196;5.696;2023-05-20T15:09:18;98739.31;;;18.64;68.22
25650;BME280;13505;45.196;5.696;2023-05-20T15:14:08;98743.50;;;18.57;68.14
25650;BME280;13505;45.196;5.696;2023-05-20T15:18:59;98734.91;;;18.53;68.30
25650;BME280;13505;45.196;5.696;2023-05-20T15:23:49;98737.75;;;18.40;69.25
25650;BME280;13505;45.196;5.696;2023-05-20T15:28:40;98733.69;;;18.36;69.44
25650;BME280;13505;45.196;5.696;2023-05-20T15:33:30;98739.28;;;18.33;69.70
25650;BME280;13505;45.196;5.696;2023-05-20T15:38:21;98743.19;;;18.29;69.76
25650;BME280;13505;45.196;5.696;2023-05-20T15:43:11;98754.25;;;18.24;70.19
25650;BME280;13505;45.196;5.696;2023-05-20T15:48:01;98748.16;;;18.12;70.76
25650;BME280;13505;45.196;5.696;2023-05-20T15:52:52;98741.50;;;18.07;71.29
25650;BME280;13505;45.196;5.696;2023-05-20T15:57:43;98745.25;;;18.04;71.39
25650;BME280;13505;45.196;5.696;2023-05-20T16:02:34;98745.34;;;18.03;70.97
25650;BME280;13505;45.196;5.696;2023-05-20T16:07:24;98749.84;;;18.02;71.19
25650;BME280;13505;45.196;5.696;2023-05-20T16:12:15;98727.66;;;18.02;70.90
25650;BME280;13505;45.196;5.696;2023-05-20T16:17:05;98734.22;;;17.97;71.59
25650;BME280;13505;45.196;5.696;2023-05-20T16:21:56;98742.03;;;17.89;72.08
25650;BME280;13505;45.196;5.696;2023-05-20T16:26:46;98738.38;;;17.90;71.90
25650;BME280;13505;45.196;5.696;2023-05-20T16:31:37;98736.81;;;17.88;71.98
25650;BME280;13505;45.196;5.696;2023-05-20T16:36:27;98734.13;;;17.88;72.30
25650;BME280;13505;45.196;5.696;2023-05-20T16:41:17;98734.41;;;17.84;72.54
25650;BME280;13505;45.196;5.696;2023-05-20T16:46:08;98721.94;;;17.85;72.79
25650;BME280;13505;45.196;5.696;2023-05-20T16:50:58;98729.94;;;17.85;72.98
25650;BME280;13505;45.196;5.696;2023-05-20T16:55:49;98736.22;;;17.84;72.56
25650;BME280;13505;45.196;5.696;2023-05-20T17:00:40;98723.47;;;17.88;72.58
25650;BME280;13505;45.196;5.696;2023-05-20T17:05:31;98731.03;;;17.82;72.29
25650;BME280;13505;45.196;5.696;2023-05-20T17:10:21;98727.66;;;17.80;72.26
25650;BME280;13505;45.196;5.696;2023-05-20T17:15:13;98727.88;;;17.77;72.17
25650;BME280;13505;45.196;5.696;2023-05-20T17:20:04;98715.56;;;17.65;72.84
25650;BME280;13505;45.196;5.696;2023-05-20T17:24:54;98723.31;;;17.68;72.91
25650;BME280;13505;45.196;5.696;2023-05-20T17:29:44;98721.88;;;17.64;73.30
25650;BME280;13505;45.196;5.696;2023-05-20T17:34:36;98726.38;;;17.63;73.13
25650;BME280;13505;45.196;5.696;2023-05-20T17:39:26;98718.16;;;17.55;73.54
25650;BME280;13505;45.196;5.696;2023-05-20T17:44:16;98721.66;;;17.55;73.97
25650;BME280;13505;45.196;5.696;2023-05-20T17:49:07;98725.69;;;17.50;74.09
25650;BME280;13505;45.196;5.696;2023-05-20T17:53:57;98722.28;;;17.48;73.87
25650;BME280;13505;45.196;5.696;2023-05-20T17:58:47;98729.97;;;17.41;74.05
